Time;durP1;ratioP1;P1;durP2;ratioP2;P2;SDS_P1;SDS_P2;PMS_P1;PMS_P2;Temp;Humidity;BMP_temperature;BMP_pressure;BME280_temperature;BME280_humidity;BME280_pressure;Samples;Min_cycle;Max_cycle;Signal;HPM_P1;HPM_P2
2021/08/01 00:01:45;;;;;;;4.20;3.80;;;;;;;21.99;77.28;98835.00;4958366;28;20264;-92
2021/08/01 00:04:12;;;;;;;6.10;4.30;;;;;;;21.89;77.90;98832.50;4959222;28;20577;-94
2021/08/01 00:06:39;;;;;;;4.53;3.90;;;;;;;21.89;77.93;98821.59;4991618;28;20675;-93
2021/08/01 00:09:06;;;;;;;4.20;3.80;;;;;;;21.84;77.78;98825.28;4991540;28;20235;-93
2021/08/01 00:11:33;;;;;;;4.10;3.70;;;;;;;21.84;77.27;98836.19;4977618;28;20240;-94
2021/08/01 00:14:00;;;;;;;4.10;3.80;;;;;;;21.92;77.58;98835.44;4995292;28;20238;-93
2021/08/01 00:16:27;;;;;;;4.47;4.07;;;;;;;21.88;77.50;98833.66;4978821;28;20316;-94
2021/08/01 00:18:57;;;;;;;4.50;4.10;;;;;;;21.86;77.84;98819.53;4962723;28;20657;-94
2021/08/01 00:21:25;;;;;;;5.33;3.90;;;;;;;21.85;77.24;98809.72;4978624;28;20248;-92
2021/08/01 00:23:52;;;;;;;4.30;3.90;;;;;;;21.81;77.62;98806.00;4978728;28;20230;-94
2021/08/01 00:26:19;;;;;;;4.40;4.00;;;;;;;21.87;78.04;98813.75;4962200;28;20584;-94
2021/08/01 00:28:46;;;;;;;3.83;3.53;;;;;;;21.78;78.23;98812.91;4962396;28;20232;-95
2021/08/01 00:31:12;;;;;;;4.30;3.93;;;;;;;21.81;78.46;98812.28;4978714;28;20242;-94
2021/08/01 00:33:39;;;;;;;4.70;4.00;;;;;;;21.74;78.40;98792.81;4978300;28;20227;-94
2021/08/01 00:36:06;;;;;;;4.10;3.80;;;;;;;21.63;77.73;98786.03;4978089;28;20238;-93
2021/08/01 00:38:33;;;;;;;5.00;4.20;;;;;;;21.72;78.12;98786.88;4962694;28;20511;-94
2021/08/01 00:41:01;;;;;;;4.33;3.93;;;;;;;21.68;77.96;98775.00;4978227;28;20224;-94
2021/08/01 00:43:28;;;;;;;4.23;3.83;;;;;;;21.66;78.64;98774.50;4978138;28;20539;-93
2021/08/01 00:45:55;;;;;;;4.43;4.13;;;;;;;21.52;77.78;98779.22;4978594;28;20680;-92
2021/08/01 00:48:26;;;;;;;4.17;3.87;;;;;;;21.57;77.72;98783.75;4994068;28;20565;-94
2021/08/01 00:50:53;;;;;;;4.60;4.20;;;;;;;21.51;78.51;98772.97;4994069;28;20224;-93
2021/08/01 00:53:21;;;;;;;4.20;3.90;;;;;;;21.52;77.52;98776.50;4978132;28;20231;-93
2021/08/01 00:55:49;;;;;;;5.00;4.03;;;;;;;21.50;78.45;98774.09;4962111;28;20237;-93
2021/08/01 00:58:17;;;;;;;5.20;4.60;;;;;;;21.48;78.54;98756.44;4993834;28;20230;-93
2021/08/01 01:03:29;;;;;;;4.37;4.07;;;;;;;21.57;78.35;98748.31;4979248;28;20232;-94
2021/08/01 01:06:01;;;;;;;4.30;4.00;;;;;;;21.58;78.37;98736.31;4977705;28;20247;-93
2021/08/01 01:08:47;;;;;;;6.80;4.70;;;;;;;21.48;78.68;98707.41;4945754;28;20616;-92
2021/08/01 01:11:39;;;;;;;5.07;4.53;;;;;;;21.50;78.93;98724.25;4989271;28;20233;-93
2021/08/01 01:14:10;;;;;;;5.63;4.80;;;;;;;21.52;78.83;98736.44;4961378;28;20243;-93
2021/08/01 01:16:45;;;;;;;6.93;4.80;;;;;;;21.57;79.04;98734.69;4961938;28;20542;-94
2021/08/01 01:19:19;;;;;;;4.73;4.33;;;;;;;21.56;79.25;98717.53;4977352;28;20257;-94
2021/08/01 01:21:54;;;;;;;5.33;4.83;;;;;;;21.52;79.34;98730.19;4977431;28;20232;-92
2021/08/01 01:24:26;;;;;;;5.40;4.90;;;;;;;21.47;79.19;98714.75;4977075;28;20613;-93
2021/08/01 01:27:06;;;;;;;5.33;4.83;;;;;;;21.45;79.55;98708.84;4976834;28;20224;-94
2021/08/01 01:29:44;;;;;;;5.00;4.60;;;;;;;21.43;79.46;98716.50;4993708;28;20228;-92
2021/08/01 01:32:18;;;;;;;5.23;4.73;;;;;;;21.46;79.40;98731.44;5009480;28;20628;-94
2021/08/01 01:34:58;;;;;;;5.27;4.87;;;;;;;21.52;79.70;98749.25;4961816;28;20228;-93
2021/08/01 01:37:28;;;;;;;5.17;4.77;;;;;;;21.51;79.63;98736.72;4961259;28;20229;-94
2021/08/01 01:39:58;;;;;;;5.50;5.00;;;;;;;21.49;79.67;98726.16;4958389;28;20704;-94
2021/08/01 01:42:43;;;;;;;5.50;5.00;;;;;;;21.54;78.90;98733.41;4949999;29;20241;-95
2021/08/01 01:45:18;;;;;;;5.27;4.70;;;;;;;21.52;79.14;98722.81;4972732;28;20255;-91
2021/08/01 01:47:46;;;;;;;6.87;5.13;;;;;;;21.55;79.43;98713.22;4958218;28;20664;-94
2021/08/01 01:50:16;;;;;;;5.07;4.67;;;;;;;21.57;78.90;98712.88;4973319;28;20237;-95
2021/08/01 01:52:48;;;;;;;5.43;4.90;;;;;;;21.59;79.02;98689.66;4957991;28;20563;-92
2021/08/01 01:55:17;;;;;;;5.37;4.87;;;;;;;21.64;79.39;98694.97;4973772;28;20232;-91
2021/08/01 01:57:47;;;;;;;5.40;4.90;;;;;;;21.68;79.36;98704.13;4989435;28;20741;-92
2021/08/01 02:00:17;;;;;;;5.70;5.17;;;;;;;21.64;79.39;98696.91;4972591;28;20245;-91
2021/08/01 02:02:44;;;;;;;5.23;4.83;;;;;;;21.62;79.06;98693.66;4973949;28;20229;-91
2021/08/01 02:05:32;;;;;;;5.43;4.90;;;;;;;21.52;79.21;98681.94;4941430;29;20238;-91
2021/08/01 02:08:18;;;;;;;5.83;5.27;;;;;;;21.58;79.54;98668.16;4970785;28;20244;-92
2021/08/01 02:11:05;;;;;;;5.80;5.30;;;;;;;21.71;79.50;98673.50;4957685;28;20341;-91
2021/08/01 02:14:03;;;;;;;5.60;5.10;;;;;;;21.61;78.59;98664.81;4973307;28;20709;-93
2021/08/01 02:16:33;;;;;;;6.13;5.53;;;;;;;21.57;79.77;98644.75;4973091;28;20241;-92
2021/08/01 02:19:05;;;;;;;5.60;5.17;;;;;;;21.63;79.91;98665.31;4972749;28;20501;-92
2021/08/01 02:21:33;;;;;;;5.83;5.33;;;;;;;21.62;78.99;98667.22;4957064;28;20241;-93
2021/08/01 02:24:01;;;;;;;6.83;5.10;;;;;;;21.52;79.94;98681.13;4956804;28;20314;-93
2021/08/01 02:26:30;;;;;;;5.30;4.83;;;;;;;21.45;80.06;98665.25;4956507;28;20227;-91
2021/08/01 02:28:58;;;;;;;5.80;4.80;;;;;;;21.54;80.02;98670.72;4989037;28;20221;-91
2021/08/01 02:31:26;;;;;;;6.07;5.47;;;;;;;21.53;79.97;98685.47;4957211;29;20665;-91
2021/08/01 02:33:53;;;;;;;5.90;5.40;;;;;;;21.51;80.32;98695.84;4988597;28;20241;-92
2021/08/01 02:36:22;;;;;;;5.73;5.23;;;;;;;21.38;80.24;98673.03;4940672;29;20241;-91
2021/08/01 02:38:56;;;;;;;5.27;4.87;;;;;;;21.52;80.06;98681.13;4975856;28;20280;-93
2021/08/01 02:41:39;;;;;;;5.40;4.90;;;;;;;21.59;79.92;98673.31;4962332;28;20311;-92
2021/08/01 02:44:16;;;;;;;5.47;4.97;;;;;;;21.66;79.96;98665.47;4961965;28;20252;-94
2021/08/01 02:46:44;;;;;;;6.00;5.30;;;;;;;21.71;79.85;98646.25;4944710;28;20525;-90
2021/08/01 02:49:27;;;;;;;6.27;5.27;;;;;;;21.61;79.67;98615.75;4961148;28;20231;-91
2021/08/01 02:51:58;;;;;;;5.57;5.03;;;;;;;21.68;78.85;98651.53;4944559;28;20231;-92
2021/08/01 02:54:26;;;;;;;6.97;5.13;;;;;;;21.64;78.77;98648.66;4975803;28;20238;-91
2021/08/01 02:57:00;;;;;;;5.27;4.77;;;;;;;21.68;79.47;98651.53;4976195;28;20316;-92
2021/08/01 02:59:27;;;;;;;5.33;4.77;;;;;;;21.67;79.16;98656.19;4959977;28;20234;-91
2021/08/01 03:01:56;;;;;;;5.70;5.10;;;;;;;21.73;79.19;98687.63;4960322;28;20228;-90
2021/08/01 03:04:27;;;;;;;6.00;5.43;;;;;;;21.68;79.03;98739.56;4944616;28;20236;-91
2021/08/01 03:06:53;;;;;;;6.23;5.47;;;;;;;21.67;78.55;98764.41;4943983;28;20235;-91
2021/08/01 03:09:20;;;;;;;5.97;5.47;;;;;;;21.69;78.43;98743.91;4960262;28;20233;-92
2021/08/01 03:11:48;;;;;;;5.80;5.30;;;;;;;21.72;78.21;98709.75;4960387;28;20233;-96
2021/08/01 03:14:15;;;;;;;8.40;6.23;;;;;;;21.44;78.66;98714.59;4943377;28;20552;-93
2021/08/01 03:16:42;;;;;;;7.97;6.23;;;;;;;21.56;78.20;98690.28;4944473;28;20241;-91
2021/08/01 03:19:11;;;;;;;7.90;7.20;;;;;;;21.67;77.63;98618.03;4991829;28;20640;-93
2021/08/01 03:21:41;;;;;;;8.10;7.00;;;;;;;21.62;77.36;98574.56;4960551;28;20626;-92
2021/08/01 03:24:22;;;;;;;7.50;6.80;;;;;;;21.55;77.23;98527.91;4945384;28;20257;-92
2021/08/01 03:26:54;;;;;;;8.47;6.73;;;;;;;21.60;76.92;98546.81;4959651;28;20274;-91
2021/08/01 03:29:21;;;;;;;6.50;5.83;;;;;;;21.51;77.23;98554.16;4960053;28;20231;-93
2021/08/01 03:31:48;;;;;;;6.17;5.57;;;;;;;21.49;77.00;98543.59;4944872;28;20233;-94
2021/08/01 03:34:16;;;;;;;5.60;5.10;;;;;;;21.49;76.52;98480.09;4960095;28;20234;-93
2021/08/01 03:36:42;;;;;;;4.77;4.27;;;;;;;21.57;76.14;98489.41;4959873;28;20702;-93
2021/08/01 03:39:09;;;;;;;5.07;4.23;;;;;;;21.58;76.57;98504.66;4943710;28;20261;-94
2021/08/01 03:41:37;;;;;;;4.67;4.20;;;;;;;21.53;76.84;98525.47;4959948;28;20234;-93
2021/08/01 03:44:08;;;;;;;5.07;4.10;;;;;;;21.59;76.65;98517.16;4959604;28;20703;-95
2021/08/01 03:46:34;;;;;;;4.63;4.20;;;;;;;21.70;76.35;98540.25;4978245;28;20341;-94
2021/08/01 03:49:01;;;;;;;6.00;4.60;;;;;;;21.75;76.42;98561.91;4979694;28;20225;-95
2021/08/01 03:51:28;;;;;;;5.37;4.80;;;;;;;21.62;76.87;98544.56;4995873;28;20234;-94
2021/08/01 03:53:55;;;;;;;5.57;4.50;;;;;;;21.63;76.84;98543.47;4963670;28;20236;-94
2021/08/01 03:56:22;;;;;;;5.03;4.30;;;;;;;21.65;76.97;98540.41;4947283;28;20244;-92
2021/08/01 03:58:48;;;;;;;4.83;4.33;;;;;;;21.68;75.96;98531.59;4963987;28;20252;-92
2021/08/01 04:01:16;;;;;;;5.03;4.50;;;;;;;21.70;76.32;98513.78;4963657;28;20312;-95
2021/08/01 04:03:43;;;;;;;4.60;4.10;;;;;;;21.73;76.81;98537.72;4964157;28;20285;-94
2021/08/01 04:06:10;;;;;;;5.97;4.60;;;;;;;21.73;76.17;98534.97;4963035;28;20245;-93
2021/08/01 04:08:37;;;;;;;6.43;4.53;;;;;;;21.71;76.73;98558.22;4946959;28;20225;-93
2021/08/01 04:11:05;;;;;;;6.20;5.13;;;;;;;21.73;76.20;98548.63;4963313;28;20253;-96
2021/08/01 04:13:33;;;;;;;5.30;4.80;;;;;;;21.76;76.47;98563.50;4962891;28;20292;-94
2021/08/01 04:16:00;;;;;;;6.30;4.43;;;;;;;21.78;76.49;98573.00;4962753;28;20229;-94
2021/08/01 04:18:28;;;;;;;5.17;4.37;;;;;;;21.75;76.09;98559.97;4978806;28;20231;-93
2021/08/01 04:20:56;;;;;;;5.30;4.73;;;;;;;21.78;75.91;98558.56;4963408;28;20308;-93
2021/08/01 04:23:22;;;;;;;4.70;4.30;;;;;;;21.89;75.84;98554.38;4962977;28;20238;-93
2021/08/01 04:25:49;;;;;;;6.30;4.97;;;;;;;21.86;76.27;98558.56;4962860;28;20263;-94
2021/08/01 04:28:17;;;;;;;6.00;4.70;;;;;;;21.94;76.22;98571.44;4993861;28;20714;-94
2021/08/01 04:30:44;;;;;;;6.57;5.07;;;;;;;22.03;75.45;98579.63;4946968;28;20231;-92
2021/08/01 04:33:10;;;;;;;4.70;4.30;;;;;;;22.18;75.78;98573.69;4946514;28;20233;-93
2021/08/01 04:35:37;;;;;;;5.13;4.60;;;;;;;22.26;75.50;98558.44;4946860;28;20265;-92
2021/08/01 04:38:04;;;;;;;4.30;3.90;;;;;;;22.47;74.17;98569.50;4962280;28;20233;-93
2021/08/01 04:40:31;;;;;;;5.63;4.03;;;;;;;22.67;73.40;98594.22;4995583;28;20246;-93
2021/08/01 04:42:57;;;;;;;4.90;3.90;;;;;;;22.78;73.05;98600.16;4947430;28;20224;-92
2021/08/01 04:45:24;;;;;;;5.00;3.77;;;;;;;23.00;73.81;98607.34;4978995;28;20313;-94
2021/08/01 04:47:51;;;;;;;3.60;3.30;;;;;;;23.07;72.57;98603.00;4962853;28;20239;-94
2021/08/01 04:50:18;;;;;;;5.27;3.50;;;;;;;23.20;72.00;98620.28;4946702;28;20313;-94
2021/08/01 04:52:44;;;;;;;4.13;3.50;;;;;;;23.16;69.83;98616.63;4947438;28;20290;-93
2021/08/01 04:55:12;;;;;;;3.10;2.90;;;;;;;23.31;71.99;98598.88;4962863;28;20235;-94
2021/08/01 04:57:39;;;;;;;3.70;2.90;;;;;;;23.24;70.88;98593.91;4962455;28;20230;-94
2021/08/01 05:00:07;;;;;;;4.17;3.00;;;;;;;23.12;70.71;98610.22;4946541;28;20236;-94
2021/08/01 05:02:33;;;;;;;3.40;3.10;;;;;;;23.04;70.65;98603.66;4978851;28;20285;-93
2021/08/01 05:05:03;;;;;;;3.97;3.10;;;;;;;22.93;71.56;98601.56;4963174;28;20905;-95
2021/08/01 05:07:30;;;;;;;4.23;3.00;;;;;;;22.94;71.61;98593.06;4962741;28;20309;-94
2021/08/01 05:09:57;;;;;;;3.40;3.10;;;;;;;23.12;71.52;98569.22;4946776;28;20641;-94
2021/08/01 05:12:24;;;;;;;4.33;3.20;;;;;;;23.25;71.12;98560.81;4946362;28;20535;-93
2021/08/01 05:14:51;;;;;;;3.80;3.40;;;;;;;23.32;70.45;98565.78;4946731;28;20230;-94
2021/08/01 05:17:18;;;;;;;3.73;3.07;;;;;;;23.47;70.96;98583.59;4946548;28;20237;-94
2021/08/01 05:19:45;;;;;;;3.90;3.53;;;;;;;23.41;69.52;98580.19;4962501;28;20232;-92
2021/08/01 05:22:12;;;;;;;5.53;3.70;;;;;;;23.47;71.40;98584.38;4994047;28;20234;-94
2021/08/01 05:24:40;;;;;;;4.27;3.57;;;;;;;23.45;70.73;98575.72;4946412;28;20284;-94
2021/08/01 05:27:07;;;;;;;4.10;3.20;;;;;;;23.61;71.05;98582.19;4946469;28;20234;-94
2021/08/01 05:29:34;;;;;;;4.20;3.37;;;;;;;23.37;70.06;98576.53;4962308;28;20287;-95
2021/08/01 05:32:01;;;;;;;4.07;3.67;;;;;;;23.29;70.57;98582.81;4946160;28;20249;-94
2021/08/01 05:34:30;;;;;;;4.33;3.93;;;;;;;23.20;70.83;98595.72;4946323;28;20285;-92
2021/08/01 05:36:56;;;;;;;4.23;3.83;;;;;;;23.19;71.84;98596.81;4946372;28;20282;-93
2021/08/01 05:39:23;;;;;;;4.13;3.60;;;;;;;23.16;71.81;98595.56;4962079;28;20250;-94
2021/08/01 05:41:50;;;;;;;4.10;3.73;;;;;;;23.14;72.56;98592.34;4962316;28;20234;-94
2021/08/01 05:44:17;;;;;;;4.60;4.13;;;;;;;23.22;71.93;98601.66;4961935;28;20309;-93
2021/08/01 05:46:43;;;;;;;4.30;3.90;;;;;;;23.19;70.60;98599.56;4962187;28;20252;-93
2021/08/01 05:49:10;;;;;;;5.47;3.60;;;;;;;23.27;70.90;98583.16;4945946;28;20231;-91
2021/08/01 05:51:38;;;;;;;3.87;3.50;;;;;;;23.32;71.23;98595.84;4961880;28;20235;-94
2021/08/01 05:54:05;;;;;;;4.87;4.00;;;;;;;23.34;71.63;98590.03;4961708;28;20239;-94
2021/08/01 05:56:32;;;;;;;4.60;3.70;;;;;;;23.42;71.09;98594.69;4961988;28;20257;-93
2021/08/01 05:58:59;;;;;;;4.03;3.63;;;;;;;23.52;70.72;98618.91;4962024;28;20235;-93
2021/08/01 06:01:26;;;;;;;3.60;3.30;;;;;;;23.49;70.42;98614.91;4945863;28;20252;-92
2021/08/01 06:03:53;;;;;;;4.03;3.63;;;;;;;23.47;71.45;98617.16;4945637;28;20246;-93
2021/08/01 06:06:24;;;;;;;3.50;3.20;;;;;;;23.40;70.74;98605.94;4945296;28;20259;-93
2021/08/01 06:08:52;;;;;;;4.10;3.70;;;;;;;23.26;70.30;98610.81;4961165;28;20281;-93
2021/08/01 06:11:22;;;;;;;3.90;3.37;;;;;;;23.16;71.05;98605.69;4961836;28;20227;-93
2021/08/01 06:13:49;;;;;;;5.10;3.60;;;;;;;23.14;70.99;98608.75;4961752;28;20234;-92
2021/08/01 06:16:16;;;;;;;5.33;3.60;;;;;;;23.14;70.91;98603.28;4945138;28;20239;-95
2021/08/01 06:18:45;;;;;;;3.80;3.50;;;;;;;23.13;71.27;98588.03;4977775;28;20234;-91
2021/08/01 06:21:16;;;;;;;3.67;3.37;;;;;;;23.21;72.38;98572.72;4977102;28;20220;-95
2021/08/01 06:23:45;;;;;;;4.33;3.60;;;;;;;23.33;71.86;98561.13;4993119;28;20642;-91
2021/08/01 06:26:13;;;;;;;3.73;3.43;;;;;;;23.55;71.86;98550.75;4976759;28;20241;-92
2021/08/01 06:28:40;;;;;;;4.60;3.63;;;;;;;23.85;69.68;98542.47;4961255;28;20230;-95
2021/08/01 06:31:08;;;;;;;3.57;3.27;;;;;;;23.79;70.68;98541.09;4976831;28;20244;-94
2021/08/01 06:33:35;;;;;;;3.70;3.40;;;;;;;24.07;68.62;98540.25;4960784;28;20235;-94
2021/08/01 06:36:15;;;;;;;3.53;3.00;;;;;;;24.30;67.16;98543.47;4976451;28;20299;-91
2021/08/01 06:38:43;;;;;;;3.25;2.95;;;;;;;24.31;67.07;98542.31;4976954;28;20678;-91
2021/08/01 06:41:11;;;;;;;3.37;3.07;;;;;;;24.12;68.57;98542.75;4945432;28;20632;-92
2021/08/01 06:43:37;;;;;;;3.05;2.75;;;;;;;24.28;66.69;98553.13;4976902;28;20229;-94
2021/08/01 06:46:04;;;;;;;4.07;3.20;;;;;;;24.35;67.92;98536.97;4960480;28;20313;-93
2021/08/01 06:48:31;;;;;;;3.33;3.13;;;;;;;24.36;67.54;98533.88;4944974;28;20339;-94
2021/08/01 06:50:58;;;;;;;3.33;3.03;;;;;;;24.59;67.45;98534.31;4944772;28;20351;-94
2021/08/01 06:53:27;;;;;;;3.50;3.20;;;;;;;24.73;67.67;98523.84;4961084;28;20238;-94
2021/08/01 06:55:54;;;;;;;3.23;3.03;;;;;;;24.54;66.36;98531.81;4977279;28;20641;-91
2021/08/01 06:58:21;;;;;;;2.75;2.55;;;;;;;24.69;66.46;98514.72;4992625;28;20556;-93
2021/08/01 07:00:49;;;;;;;3.15;2.85;;;;;;;24.87;66.04;98509.88;4945119;28;20235;-95
2021/08/01 07:03:16;;;;;;;3.33;2.90;;;;;;;25.16;65.84;98512.41;4960254;28;20263;-90
2021/08/01 07:05:43;;;;;;;3.03;2.80;;;;;;;25.50;65.35;98513.09;4960823;28;20235;-91
2021/08/01 07:08:10;;;;;;;2.97;2.78;;;;;;;25.63;63.70;98498.25;4944014;28;20224;-93
2021/08/01 07:10:37;;;;;;;3.20;2.90;;;;;;;25.83;63.59;98502.78;4944496;28;20295;-94
2021/08/01 07:13:05;;;;;;;3.30;3.10;;;;;;;25.85;63.27;98504.03;4944827;28;20228;-93
2021/08/01 07:15:32;;;;;;;4.10;3.15;;;;;;;26.01;62.68;98512.34;4944634;28;20235;-94
2021/08/01 07:18:00;;;;;;;3.30;3.00;;;;;;;26.19;62.89;98513.63;4960609;28;20688;-92
2021/08/01 07:20:27;;;;;;;4.18;2.90;;;;;;;26.21;61.43;98505.91;4975567;28;20224;-93
2021/08/01 07:22:55;;;;;;;3.30;3.00;;;;;;;26.11;61.27;98519.28;4944440;28;20232;-93
2021/08/01 07:25:23;;;;;;;3.88;3.25;;;;;;;25.90;61.48;98529.66;4992282;28;20236;-94
2021/08/01 07:27:51;;;;;;;3.63;3.33;;;;;;;25.57;62.95;98524.31;4944563;28;20283;-89
2021/08/01 07:30:18;;;;;;;4.25;3.58;;;;;;;25.32;62.37;98545.44;4959849;28;20235;-94
2021/08/01 07:32:45;;;;;;;5.72;3.60;;;;;;;25.19;63.29;98535.59;4992140;28;20232;-92
2021/08/01 07:35:12;;;;;;;3.65;3.35;;;;;;;25.09;64.12;98533.31;4960260;28;20227;-91
2021/08/01 07:37:38;;;;;;;4.53;4.13;;;;;;;24.98;64.41;98547.44;4975991;28;20236;-87
2021/08/01 07:40:06;;;;;;;6.40;3.92;;;;;;;24.84;65.55;98544.19;4975396;28;20315;-91
2021/08/01 07:42:33;;;;;;;4.22;3.90;;;;;;;24.81;65.46;98553.09;4959990;28;20295;-90
2021/08/01 07:45:04;;;;;;;4.10;3.80;;;;;;;24.80;64.87;98570.66;4960132;28;20661;-90
2021/08/01 07:47:34;;;;;;;5.75;4.18;;;;;;;24.76;65.92;98575.22;4960710;28;20283;-90
2021/08/01 07:50:03;;;;;;;4.15;3.72;;;;;;;24.63;66.55;98586.47;4975034;28;20279;-90
2021/08/01 07:52:30;;;;;;;5.82;4.30;;;;;;;24.53;67.08;98587.69;4944276;28;20603;-90
2021/08/01 07:54:57;;;;;;;4.50;4.10;;;;;;;24.50;67.10;98605.56;4959657;28;20232;-91
2021/08/01 07:57:31;;;;;;;6.13;4.40;;;;;;;24.46;66.23;98612.06;4943659;28;20686;-90
2021/08/01 08:00:02;;;;;;;4.85;4.28;;;;;;;24.41;66.12;98591.16;4943566;28;20592;-92
2021/08/01 08:02:38;;;;;;;4.90;4.30;;;;;;;24.29;66.85;98593.06;4945803;28;20228;-94
2021/08/01 08:05:08;;;;;;;4.57;4.18;;;;;;;24.33;67.38;98597.53;4959740;28;20310;-93
2021/08/01 08:07:34;;;;;;;5.50;4.43;;;;;;;24.41;67.21;98601.31;4960126;28;20235;-95
2021/08/01 08:10:02;;;;;;;4.93;4.40;;;;;;;24.40;67.44;98545.00;4944001;28;20218;-93
2021/08/01 08:12:28;;;;;;;5.50;5.00;;;;;;;24.47;67.10;98504.16;4959563;28;20224;-93
2021/08/01 08:14:55;;;;;;;5.30;4.80;;;;;;;24.52;65.95;98580.63;4957405;28;20299;-94
2021/08/01 08:17:22;;;;;;;5.50;5.00;;;;;;;24.48;67.12;98590.63;4943849;28;20238;-95
2021/08/01 08:19:49;;;;;;;5.00;4.53;;;;;;;24.36;67.03;98560.44;4962055;28;20253;-95
2021/08/01 08:22:17;;;;;;;5.15;4.65;;;;;;;24.29;67.85;98571.16;4966900;28;20235;-91
2021/08/01 08:24:50;;;;;;;5.20;4.70;;;;;;;24.41;67.67;98568.47;4986876;28;20255;-89
2021/08/01 08:27:18;;;;;;;5.07;4.40;;;;;;;24.59;65.83;98556.22;4988271;28;20231;-93
2021/08/01 08:29:44;;;;;;;5.30;4.87;;;;;;;24.60;66.69;98516.75;4984588;28;20268;-86
2021/08/01 08:32:11;;;;;;;6.00;5.35;;;;;;;24.78;66.74;98507.19;4997165;28;20231;-92
2021/08/01 08:34:38;;;;;;;6.03;5.43;;;;;;;25.02;65.57;98423.47;4966003;28;20236;-93
2021/08/01 08:37:05;;;;;;;6.05;5.50;;;;;;;26.00;64.12;98430.34;4979294;28;20227;-92
2021/08/01 08:39:31;;;;;;;5.53;5.03;;;;;;;26.54;62.02;98411.44;4946405;28;20232;-93
2021/08/01 08:41:59;;;;;;;6.27;5.70;;;;;;;26.89;59.60;98390.34;4946419;28;20231;-91
2021/08/01 08:44:27;;;;;;;5.90;5.40;;;;;;;27.22;59.37;98358.91;4977846;28;20635;-88
2021/08/01 08:46:57;;;;;;;5.45;5.03;;;;;;;27.36;58.85;98337.19;4946284;28;20232;-89
2021/08/01 08:49:24;;;;;;;5.20;4.80;;;;;;;27.46;58.07;98329.19;4946069;28;20238;-93
2021/08/01 08:51:53;;;;;;;5.15;4.75;;;;;;;27.68;56.86;98337.88;4946177;28;20318;-93
2021/08/01 08:54:39;;;;;;;5.38;4.90;;;;;;;27.89;57.39;98339.09;4961851;28;20236;-89
2021/08/01 08:57:11;;;;;;;5.00;4.55;;;;;;;27.59;56.40;98335.34;4977848;28;20235;-93
2021/08/01 08:59:38;;;;;;;5.20;4.80;;;;;;;27.85;56.75;98334.69;4946075;28;20584;-88
2021/08/01 09:02:05;;;;;;;5.00;4.60;;;;;;;27.77;56.43;98346.69;4977488;28;20287;-85
2021/08/01 09:04:32;;;;;;;5.70;5.05;;;;;;;27.67;56.72;98339.06;4961728;28;20228;-85
2021/08/01 09:06:59;;;;;;;5.50;5.00;;;;;;;27.72;55.58;98327.72;4945457;28;20722;-84
2021/08/01 09:09:25;;;;;;;6.05;5.28;;;;;;;28.37;55.23;98318.34;4993498;28;20252;-85
2021/08/01 09:11:53;;;;;;;5.80;5.25;;;;;;;28.68;53.42;98344.03;4977640;28;20259;-84
2021/08/01 09:14:21;;;;;;;5.45;4.93;;;;;;;29.31;51.61;98338.69;4961216;28;20340;-84
2021/08/01 09:16:51;;;;;;;5.50;5.00;;;;;;;29.90;50.79;98368.25;4960865;28;20220;-85
2021/08/01 09:19:32;;;;;;;7.50;5.22;;;;;;;30.09;49.30;98361.72;4945274;28;20253;-85
2021/08/01 09:22:22;;;;;;;6.10;5.45;;;;;;;29.85;50.15;98349.22;5009626;28;20270;-84
2021/08/01 09:24:50;;;;;;;5.47;4.97;;;;;;;30.64;48.71;98364.63;4961291;28;20619;-85
2021/08/01 09:27:26;;;;;;;5.50;5.00;;;;;;;30.90;47.14;98347.81;4961175;28;20287;-84
2021/08/01 09:29:53;;;;;;;5.38;4.88;;;;;;;31.15;47.26;98364.63;4960943;28;20242;-84
2021/08/01 09:32:20;;;;;;;6.07;5.57;;;;;;;32.16;46.25;98402.28;4944945;28;20263;-84
2021/08/01 09:34:48;;;;;;;4.75;4.40;;;;;;;33.12;43.34;98405.94;4960922;28;20243;-84
2021/08/01 09:37:32;;;;;;;5.75;5.35;;;;;;;33.46;41.07;98397.16;4960625;28;20278;-83
2021/08/01 09:40:11;;;;;;;5.25;4.80;;;;;;;34.22;40.92;98399.28;4944936;28;20278;-85
2021/08/01 09:42:42;;;;;;;5.20;4.80;;;;;;;34.52;39.10;98401.47;4960599;28;20238;-85
2021/08/01 09:45:13;;;;;;;5.35;4.95;;;;;;;34.94;38.45;98400.38;4944718;28;20232;-85
2021/08/01 09:47:40;;;;;;;5.70;5.20;;;;;;;35.34;37.36;98388.44;4976828;28;20236;-85
2021/08/01 09:50:08;;;;;;;5.55;5.03;;;;;;;35.42;36.99;98386.38;4960220;28;20240;-85
2021/08/01 09:52:35;;;;;;;5.22;4.82;;;;;;;34.99;37.54;98395.16;4960676;28;20236;-85
2021/08/01 09:55:02;;;;;;;5.90;5.40;;;;;;;34.52;37.95;98391.13;4957756;28;20702;-85
2021/08/01 09:57:29;;;;;;;5.75;5.25;;;;;;;34.08;38.92;98382.66;4943732;28;20331;-85
2021/08/01 10:00:06;;;;;;;5.82;5.43;;;;;;;33.58;40.21;98386.44;4960184;28;20236;-84
2021/08/01 10:02:41;;;;;;;5.70;5.30;;;;;;;33.29;40.96;98384.94;4944305;28;20235;-86
2021/08/01 10:05:15;;;;;;;5.07;4.65;;;;;;;32.67;42.69;98398.44;4960100;28;20228;-85
2021/08/01 10:07:50;;;;;;;5.38;4.97;;;;;;;31.96;43.29;98401.03;4960283;28;20236;-85
2021/08/01 10:10:26;;;;;;;5.40;5.00;;;;;;;31.73;44.34;98400.56;4975120;28;20236;-84
2021/08/01 10:12:58;;;;;;;5.20;4.80;;;;;;;31.66;44.32;98387.47;4944060;28;20228;-84
2021/08/01 10:15:26;;;;;;;5.68;5.28;;;;;;;31.90;43.80;98402.59;4958581;28;20233;-86
2021/08/01 10:17:53;;;;;;;5.45;5.05;;;;;;;31.86;45.06;98397.03;4959926;28;20252;-90
2021/08/01 10:20:20;;;;;;;5.75;5.18;;;;;;;31.79;45.21;98380.38;4955048;28;20654;-89
2021/08/01 10:22:48;;;;;;;5.97;5.47;;;;;;;31.63;45.20;98373.59;4956992;29;20248;-90
2021/08/01 10:25:21;;;;;;;6.05;5.45;;;;;;;31.51;45.53;98371.94;4957128;28;20284;-88
2021/08/01 10:27:52;;;;;;;5.60;5.20;;;;;;;31.01;46.83;98376.41;4957124;28;20257;-89
2021/08/01 10:30:26;;;;;;;5.43;4.90;;;;;;;31.04;47.10;98373.66;4924778;29;20344;-89
2021/08/01 10:33:00;;;;;;;5.60;5.20;;;;;;;31.25;45.48;98373.00;4956858;28;20240;-86
2021/08/01 10:35:28;;;;;;;6.07;5.30;;;;;;;31.14;45.48;98363.03;4956907;28;20228;-87
2021/08/01 10:38:02;;;;;;;6.25;5.72;;;;;;;30.99;45.84;98351.06;4938005;29;20248;-87
2021/08/01 10:40:34;;;;;;;5.38;4.97;;;;;;;30.83;46.56;98364.38;4921631;29;20233;-87
2021/08/01 10:43:06;;;;;;;5.45;5.10;;;;;;;30.86;46.49;98358.88;4939196;29;20233;-88
2021/08/01 10:45:35;;;;;;;5.57;5.07;;;;;;;30.89;46.36;98341.50;4940523;29;20221;-87
2021/08/01 10:48:01;;;;;;;5.70;5.20;;;;;;;31.16;45.52;98347.66;4924337;29;20318;-88
2021/08/01 10:50:30;;;;;;;5.60;5.10;;;;;;;31.37;45.47;98342.22;4939981;29;20644;-90
2021/08/01 10:53:20;;;;;;;5.60;5.20;;;;;;;31.87;43.16;98334.91;4938706;29;20263;-91
2021/08/01 10:55:48;;;;;;;5.90;5.50;;;;;;;32.14;42.47;98320.75;4956080;28;20237;-86
2021/08/01 10:58:16;;;;;;;5.65;5.15;;;;;;;32.48;42.60;98310.88;4923343;29;20637;-87
2021/08/01 11:00:55;;;;;;;5.60;5.10;;;;;;;32.70;42.50;98311.69;4924405;29;20229;-87
2021/08/01 11:03:23;;;;;;;5.35;4.88;;;;;;;33.25;40.73;98308.41;4971523;28;20228;-88
2021/08/01 11:05:50;;;;;;;5.47;5.07;;;;;;;33.76;39.40;98299.50;4908493;29;20233;-87
2021/08/01 11:08:17;;;;;;;6.18;5.68;;;;;;;33.61;39.80;98301.50;4939236;28;20232;-85
2021/08/01 11:10:44;;;;;;;5.63;5.22;;;;;;;32.88;41.14;98317.22;4971886;28;20308;-86
2021/08/01 11:13:23;;;;;;;5.80;5.40;;;;;;;33.40;39.20;98309.97;4939704;29;20228;-90
2021/08/01 11:15:51;;;;;;;5.35;4.95;;;;;;;33.45;39.51;98299.22;4939880;29;20239;-87
2021/08/01 11:18:31;;;;;;;5.80;5.38;;;;;;;32.96;39.87;98311.25;4954988;28;20257;-89
2021/08/01 11:21:05;;;;;;;6.28;5.70;;;;;;;33.12;40.34;98311.59;4939940;29;20228;-91
2021/08/01 11:23:44;;;;;;;6.20;5.70;;;;;;;33.60;39.51;98316.59;4954710;28;20328;-89
2021/08/01 11:26:15;;;;;;;5.40;5.00;;;;;;;33.86;39.29;98304.19;4955050;29;20261;-90
2021/08/01 11:28:44;;;;;;;5.32;4.65;;;;;;;33.80;39.21;98295.50;4956361;29;20275;-90
2021/08/01 11:31:19;;;;;;;5.50;5.10;;;;;;;32.98;40.81;98296.97;4923965;29;20292;-90
2021/08/01 11:33:48;;;;;;;5.57;5.07;;;;;;;33.52;39.36;98313.06;4924407;29;20723;-90
2021/08/01 11:36:18;;;;;;;5.80;5.30;;;;;;;33.76;39.25;98308.63;4954864;29;20288;-88
2021/08/01 11:38:47;;;;;;;5.40;4.93;;;;;;;34.06;37.99;98324.72;4971292;28;20221;-90
2021/08/01 11:41:39;;;;;;;4.38;4.07;;;;;;;34.63;35.83;98327.06;4955578;29;20229;-90
2021/08/01 11:44:16;;;;;;;5.45;4.88;;;;;;;35.06;35.77;98327.47;4956055;29;20240;-91
2021/08/01 11:46:55;;;;;;;4.60;4.20;;;;;;;34.57;35.87;98326.75;4955554;28;20224;-90
2021/08/01 11:49:22;;;;;;;5.55;4.55;;;;;;;34.71;35.50;98323.88;4956221;29;20304;-89